Time;durP1;ratioP1;P1;durP2;ratioP2;P2;SDS_P1;SDS_P2;PMS_P1;PMS_P2;Temp;Humidity;BMP_temperature;BMP_pressure;BME280_temperature;BME280_humidity;BME280_pressure;Samples;Min_cycle;Max_cycle;Signal;HPM_P1;HPM_P2
2022/06/09 00:01:33;;;;;;;6.10;2.03;;;;;;;18.22;76.84;98568.56;5093920;28;20038;-51
2022/06/09 00:04:03;;;;;;;5.60;2.22;;;;;;;18.28;76.64;98554.25;5093824;28;20094;-51
2022/06/09 00:06:43;;;;;;;5.97;1.90;;;;;;;18.29;76.31;98560.38;5093899;28;20035;-51
2022/06/09 00:09:09;;;;;;;4.38;1.83;;;;;;;18.17;75.94;98558.69;5095139;28;20137;-51
2022/06/09 00:11:43;;;;;;;6.05;1.55;;;;;;;17.91;75.43;98547.03;5095017;28;20099;-51
2022/06/09 00:14:09;;;;;;;9.60;1.40;;;;;;;17.70;76.13;98553.97;5095048;28;20020;-51
2022/06/09 00:16:36;;;;;;;5.45;1.45;;;;;;;17.52;76.35;98562.25;5094887;28;20039;-51
2022/06/09 00:19:05;;;;;;;4.82;1.20;;;;;;;17.40;76.41;98558.94;5093620;28;20027;-51
2022/06/09 00:21:32;;;;;;;6.75;1.15;;;;;;;17.32;76.78;98558.31;5094994;28;20020;-50
2022/06/09 00:23:58;;;;;;;2.92;1.02;;;;;;;17.31;76.79;98551.41;5094719;28;20020;-50
2022/06/09 00:26:24;;;;;;;5.78;1.38;;;;;;;17.29;76.71;98563.34;5094622;28;20035;-51
2022/06/09 00:28:52;;;;;;;4.70;1.20;;;;;;;17.45;77.03;98574.94;5094715;28;20393;-51
2022/06/09 00:31:18;;;;;;;3.97;0.80;;;;;;;17.61;76.59;98566.09;5093314;28;20127;-51
2022/06/09 00:33:43;;;;;;;2.22;0.85;;;;;;;17.83;76.14;98559.91;5093312;28;20517;-51
2022/06/09 00:36:09;;;;;;;2.30;0.85;;;;;;;17.95;75.77;98563.28;5093289;28;20582;-51
2022/06/09 00:38:35;;;;;;;2.35;1.13;;;;;;;18.04;75.26;98553.78;5093026;28;20472;-51
2022/06/09 00:41:02;;;;;;;89.40;6.55;;;;;;;18.20;77.06;98577.84;5093175;28;20081;-51
2022/06/09 00:43:28;;;;;;;27.13;2.58;;;;;;;18.10;77.40;98557.28;5094276;28;20023;-51
2022/06/09 00:46:13;;;;;;;5.03;1.70;;;;;;;17.42;78.49;98568.25;5093051;28;20016;-52
2022/06/09 00:49:01;;;;;;;8.63;1.90;;;;;;;17.20;80.64;98576.19;5094369;28;20032;-52
2022/06/09 00:51:42;;;;;;;10.68;3.45;;;;;;;17.19;82.03;98573.81;5094310;28;20032;-53
2022/06/09 00:54:19;;;;;;;8.52;2.63;;;;;;;17.23;82.90;98570.41;5092933;28;20032;-52
2022/06/09 00:56:57;;;;;;;9.88;5.45;;;;;;;17.42;83.97;98583.38;5092875;28;20039;-51
2022/06/09 00:59:28;;;;;;;10.15;4.53;;;;;;;17.44;84.42;98586.59;5094092;28;20043;-53
2022/06/09 01:01:57;;;;;;;10.95;5.07;;;;;;;17.45;85.03;98589.00;5092753;28;20031;-53
2022/06/09 01:04:25;;;;;;;74.97;9.45;;;;;;;17.55;85.69;98577.69;5093941;28;20035;-52
2022/06/09 01:07:02;;;;;;;8.15;2.75;;;;;;;17.51;85.67;98574.75;5093972;28;20024;-52
2022/06/09 01:09:30;;;;;;;7.25;3.00;;;;;;;17.50;85.90;98572.31;5093955;28;20161;-53
2022/06/09 01:11:57;;;;;;;6.15;2.88;;;;;;;17.37;85.74;98570.84;5093903;28;20021;-52
2022/06/09 01:14:27;;;;;;;8.73;3.00;;;;;;;17.28;85.91;98570.47;5092420;28;20028;-52
2022/06/09 01:17:12;;;;;;;3.60;2.30;;;;;;;17.15;85.58;98573.50;5093782;28;20024;-53
2022/06/09 01:19:50;;;;;;;;;;;;;;;17.10;85.80;98581.38;5094191;28;20106;-52
2022/06/09 01:22:34;;;;;;;8.85;2.80;;;;;;;16.92;85.93;98585.94;5093607;28;20002;-51
2022/06/09 01:25:18;;;;;;;9.60;3.05;;;;;;;17.11;86.83;98573.19;5092211;28;20509;-52
2022/06/09 01:28:29;;;;;;;7.60;3.10;;;;;;;17.37;86.89;98576.97;5093583;28;20020;-52
2022/06/09 01:31:21;;;;;;;5.13;1.85;;;;;;;17.55;86.53;98577.69;5093545;28;20024;-51
2022/06/09 01:33:55;;;;;;;3.38;1.50;;;;;;;17.67;85.99;98573.06;5088236;28;20131;-51
2022/06/09 01:36:36;;;;;;;8.93;1.65;;;;;;;17.77;85.01;98577.69;5093360;28;20026;-52
2022/06/09 01:39:05;;;;;;;9.77;1.95;;;;;;;17.92;84.89;98577.03;5092633;28;20170;-52
2022/06/09 01:41:31;;;;;;;3.95;1.40;;;;;;;18.03;84.15;98575.28;5091906;28;20035;-52
2022/06/09 01:43:58;;;;;;;4.50;1.45;;;;;;;18.19;83.42;98577.03;5093217;28;20020;-51
2022/06/09 01:46:27;;;;;;;10.60;3.60;;;;;;;18.37;82.68;98583.81;5093195;28;20023;-51
2022/06/09 01:48:57;;;;;;;6.07;1.70;;;;;;;18.52;81.76;98577.81;5093192;28;20020;-52
2022/06/09 01:51:25;;;;;;;5.85;1.80;;;;;;;18.66;81.03;98570.22;5091867;28;20463;-52
2022/06/09 01:54:08;;;;;;;8.77;3.90;;;;;;;18.77;80.25;98572.69;5093049;28;20027;-51
2022/06/09 01:56:49;;;;;;;7.88;1.70;;;;;;;18.83;79.62;98586.03;5093053;28;20097;-51
2022/06/09 01:59:25;;;;;;;6.22;1.63;;;;;;;18.99;78.63;98579.75;5092935;28;20133;-50
2022/06/09 02:02:19;;;;;;;4.20;1.40;;;;;;;19.11;78.59;98580.34;5092970;28;20032;-51
2022/06/09 02:04:50;;;;;;;8.68;1.90;;;;;;;19.20;79.40;98588.63;5086478;28;20050;-51
2022/06/09 02:07:19;;;;;;;10.63;2.15;;;;;;;19.07;79.83;98581.13;5092816;28;20024;-51
2022/06/09 02:09:44;;;;;;;10.52;2.38;;;;;;;18.95;80.37;98584.81;5092732;28;20037;-51
2022/06/09 02:12:14;;;;;;;10.65;2.20;;;;;;;18.92;80.32;98582.63;5092669;28;20102;-51
2022/06/09 02:14:45;;;;;;;10.38;2.20;;;;;;;18.91;79.73;98589.03;5092914;28;20094;-50
2022/06/09 02:17:11;;;;;;;10.07;1.90;;;;;;;18.89;79.45;98591.13;5092679;28;20035;-50
2022/06/09 02:19:40;;;;;;;11.57;2.08;;;;;;;18.96;78.57;98581.06;5092627;28;20394;-51
2022/06/09 02:22:09;;;;;;;3.67;1.50;;;;;;;18.84;77.88;98580.47;5091234;28;20051;-51
2022/06/09 02:24:35;;;;;;;10.10;2.95;;;;;;;18.85;77.75;98587.38;5092462;28;20012;-51
2022/06/09 02:27:01;;;;;;;10.07;1.60;;;;;;;18.90;77.37;98581.31;5092461;28;20061;-51
2022/06/09 02:29:27;;;;;;;7.50;1.75;;;;;;;18.90;76.07;98590.06;5092436;28;20020;-51
2022/06/09 02:31:54;;;;;;;8.00;1.63;;;;;;;18.95;76.00;98579.47;5092347;28;20031;-51
2022/06/09 02:34:20;;;;;;;6.60;2.05;;;;;;;19.04;75.71;98586.97;5092589;28;20016;-52
2022/06/09 02:36:46;;;;;;;10.32;1.58;;;;;;;19.17;75.26;98581.16;5092276;28;20043;-51
2022/06/09 02:39:12;;;;;;;12.65;2.15;;;;;;;19.30;74.50;98580.69;5092041;28;20063;-51
2022/06/09 02:41:38;;;;;;;6.43;1.90;;;;;;;19.38;73.93;98592.72;5092226;28;20024;-52
2022/06/09 02:44:04;;;;;;;8.25;1.40;;;;;;;19.42;73.31;98590.31;5090750;28;20050;-51
2022/06/09 02:46:30;;;;;;;5.10;1.30;;;;;;;19.46;72.63;98597.53;5090835;28;20024;-52
2022/06/09 02:48:56;;;;;;;7.32;1.27;;;;;;;19.36;72.10;98592.19;5092133;28;20401;-51
2022/06/09 02:51:26;;;;;;;11.40;1.58;;;;;;;19.30;72.20;98595.88;5091190;28;20024;-52
2022/06/09 02:53:56;;;;;;;6.22;1.58;;;;;;;19.28;72.23;98593.47;5090702;28;20028;-52
2022/06/09 02:56:23;;;;;;;6.30;1.67;;;;;;;19.41;72.15;98599.38;5092057;28;20020;-51
2022/06/09 02:58:49;;;;;;;10.45;1.77;;;;;;;19.40;71.79;98589.78;5091969;28;20024;-52
2022/06/09 03:01:14;;;;;;;6.05;1.67;;;;;;;19.45;71.79;98595.13;5091980;28;20023;-51
2022/06/09 03:03:40;;;;;;;5.25;1.33;;;;;;;19.48;71.91;98600.75;5091906;28;20039;-51
2022/06/09 03:06:06;;;;;;;13.13;1.83;;;;;;;19.40;71.85;98589.78;5091839;28;20489;-51
2022/06/09 03:08:32;;;;;;;9.45;1.45;;;;;;;19.34;71.96;98597.75;5091902;28;20028;-51
2022/06/09 03:10:58;;;;;;;8.70;1.65;;;;;;;19.26;71.88;98606.22;5090584;28;20031;-52
2022/06/09 03:13:24;;;;;;;11.07;1.88;;;;;;;19.22;72.02;98602.47;5091738;28;20024;-51
2022/06/09 03:15:50;;;;;;;7.88;1.52;;;;;;;19.27;71.65;98599.84;5090534;28;20494;-52
2022/06/09 03:18:17;;;;;;;9.30;1.63;;;;;;;19.29;71.39;98603.03;5091842;28;20051;-51
2022/06/09 03:20:44;;;;;;;8.85;1.52;;;;;;;19.24;71.26;98605.69;5090430;28;20025;-52
2022/06/09 03:23:10;;;;;;;9.73;1.35;;;;;;;19.00;71.30;98607.16;5091776;28;20026;-52
2022/06/09 03:25:37;;;;;;;11.70;2.72;;;;;;;18.72;72.45;98617.84;5091631;28;20063;-52
2022/06/09 03:28:04;;;;;;;6.50;2.00;;;;;;;18.62;73.04;98612.44;5091734;28;20059;-52
2022/06/09 03:30:30;;;;;;;10.27;1.60;;;;;;;18.56;73.25;98624.91;5091734;28;20034;-52
2022/06/09 03:32:56;;;;;;;8.88;2.13;;;;;;;18.53;73.34;98625.41;5090364;28;20024;-52
2022/06/09 03:35:21;;;;;;;8.85;1.70;;;;;;;18.50;72.95;98635.75;5091638;28;20074;-52
2022/06/09 03:37:47;;;;;;;7.40;1.80;;;;;;;18.55;73.73;98633.13;5091623;28;20131;-52
2022/06/09 03:40:16;;;;;;;16.92;7.72;;;;;;;18.76;73.52;98628.78;5091569;28;20474;-52
2022/06/09 03:42:42;;;;;;;9.68;2.50;;;;;;;18.88;72.92;98632.06;5091641;28;20081;-51
2022/06/09 03:45:08;;;;;;;9.82;2.35;;;;;;;19.00;73.73;98639.88;5090170;28;20036;-51
2022/06/09 03:47:34;;;;;;;9.77;2.00;;;;;;;18.92;73.38;98633.16;5090193;28;20020;-51
2022/06/09 03:50:00;;;;;;;10.88;2.60;;;;;;;18.82;72.59;98648.25;5091564;28;20031;-50
2022/06/09 03:52:25;;;;;;;11.30;2.40;;;;;;;18.70;73.12;98643.09;5091514;28;20485;-47
2022/06/09 03:54:51;;;;;;;11.60;2.17;;;;;;;18.64;74.27;98647.56;5090192;28;20034;-49
2022/06/09 03:57:17;;;;;;;12.52;2.00;;;;;;;18.66;74.04;98645.44;5090124;28;20478;-49
2022/06/09 03:59:43;;;;;;;9.70;2.35;;;;;;;18.82;73.49;98642.94;5090123;28;20024;-49
2022/06/09 04:02:09;;;;;;;12.23;2.10;;;;;;;19.07;72.68;98647.63;5091479;28;20027;-49
2022/06/09 04:04:35;;;;;;;9.07;2.08;;;;;;;19.34;71.35;98644.84;5093819;28;20505;-49
2022/06/09 04:07:00;;;;;;;19.08;2.78;;;;;;;19.55;70.25;98651.84;5095106;28;20107;-49
2022/06/09 04:09:29;;;;;;;6.68;1.48;;;;;;;19.72;69.04;98656.25;5095119;28;20030;-49
2022/06/09 04:11:55;;;;;;;14.35;2.25;;;;;;;19.85;69.22;98655.72;5095000;28;20051;-49
2022/06/09 04:14:23;;;;;;;14.57;2.80;;;;;;;19.96;68.25;98653.91;5095038;28;20084;-48
2022/06/09 04:16:49;;;;;;;15.98;3.05;;;;;;;20.08;67.66;98656.31;5094988;28;20023;-49
2022/06/09 04:19:17;;;;;;;13.10;2.40;;;;;;;20.25;67.09;98656.09;5093574;28;20111;-48
2022/06/09 04:21:43;;;;;;;15.77;2.10;;;;;;;20.31;66.33;98660.38;5093538;28;20397;-47
2022/06/09 04:24:10;;;;;;;10.57;2.00;;;;;;;20.35;66.05;98664.91;5094960;28;20362;-48
2022/06/09 04:26:38;;;;;;;12.50;2.38;;;;;;;20.43;65.67;98660.13;5094835;28;20024;-48
2022/06/09 04:29:06;;;;;;;15.88;2.45;;;;;;;20.43;64.94;98663.59;5093448;28;20035;-48
2022/06/09 04:31:33;;;;;;;18.55;3.08;;;;;;;20.39;65.70;98665.19;5094677;28;20031;-48
2022/06/09 04:33:58;;;;;;;19.15;3.13;;;;;;;20.40;66.13;98672.09;5093270;28;20521;-48
2022/06/09 04:36:24;;;;;;;13.00;2.25;;;;;;;20.40;65.93;98672.09;5094644;28;20568;-46
2022/06/09 04:38:50;;;;;;;18.33;2.75;;;;;;;20.26;65.25;98673.69;5094328;28;20127;-48
2022/06/09 04:41:17;;;;;;;14.60;2.47;;;;;;;19.79;64.93;98667.44;5094472;28;20069;-47
2022/06/09 04:43:46;;;;;;;19.33;4.18;;;;;;;19.26;66.32;98674.63;5094349;28;20435;-47
2022/06/09 04:46:18;;;;;;;15.57;2.50;;;;;;;19.09;67.61;98677.41;5094357;28;20028;-47
2022/06/09 04:48:44;;;;;;;24.38;3.60;;;;;;;19.21;68.19;98670.03;5076314;28;20031;-47
2022/06/09 04:51:12;;;;;;;13.25;2.65;;;;;;;19.35;68.43;98673.84;5094306;28;20101;-49
2022/06/09 04:53:39;;;;;;;20.67;3.08;;;;;;;19.41;69.74;98672.03;5094256;28;20026;-47
2022/06/09 04:56:06;;;;;;;19.23;3.40;;;;;;;19.39;70.61;98686.66;5092884;28;20031;-47
2022/06/09 04:58:32;;;;;;;21.80;3.63;;;;;;;19.22;71.06;98689.50;5092839;28;20016;-47
2022/06/09 05:00:58;;;;;;;15.82;3.08;;;;;;;19.17;71.59;98695.56;5092787;28;20097;-46
2022/06/09 05:03:25;;;;;;;16.67;3.40;;;;;;;19.11;71.90;98693.94;5092789;28;20103;-47
2022/06/09 05:05:51;;;;;;;18.50;3.33;;;;;;;19.09;71.93;98696.03;5093896;28;20032;-47
2022/06/09 05:08:18;;;;;;;15.20;4.22;;;;;;;19.11;71.50;98699.25;5093998;28;20020;-49
2022/06/09 05:10:46;;;;;;;18.73;4.38;;;;;;;19.22;72.20;98695.59;5092607;28;20085;-48
2022/06/09 05:13:14;;;;;;;18.27;4.28;;;;;;;19.31;72.30;98707.34;5093032;28;20540;-48
2022/06/09 05:15:52;;;;;;;12.32;2.85;;;;;;;19.07;71.09;98714.13;5092496;28;20028;-47
2022/06/09 05:18:21;;;;;;;19.10;2.55;;;;;;;18.60;72.11;98720.09;5093792;28;20054;-48
2022/06/09 05:20:49;;;;;;;21.75;3.70;;;;;;;18.29;75.29;98720.59;5093751;28;20036;-48
2022/06/09 05:23:14;;;;;;;19.58;3.67;;;;;;;18.30;77.45;98724.03;5093747;28;20024;-49
2022/06/09 05:25:40;;;;;;;19.20;3.75;;;;;;;18.35;78.51;98722.25;5093617;28;20103;-48
2022/06/09 05:28:06;;;;;;;23.15;3.30;;;;;;;18.41;78.99;98722.28;5093765;28;20040;-49
2022/06/09 05:30:32;;;;;;;17.50;3.97;;;;;;;18.41;79.46;98724.94;5092299;28;20028;-48
2022/06/09 05:32:58;;;;;;;15.75;3.65;;;;;;;18.32;79.49;98732.56;5092222;28;20267;-48
2022/06/09 05:35:24;;;;;;;13.20;3.45;;;;;;;18.24;80.21;98733.00;5093509;28;20050;-48
2022/06/09 05:46:05;;;;;;;20.55;2.83;;;;;;;18.27;81.10;98728.00;5093557;28;20039;-46
2022/06/09 05:48:31;;;;;;;15.57;2.40;;;;;;;18.24;79.91;98740.97;5093155;28;20031;-46
2022/06/09 05:50:57;;;;;;;18.85;3.83;;;;;;;18.08;80.14;98734.69;5093132;28;20028;-46
2022/06/09 05:53:26;;;;;;;12.02;3.13;;;;;;;18.12;80.06;98752.53;5093134;28;20098;-47
2022/06/09 05:55:51;;;;;;;12.18;2.78;;;;;;;18.04;78.61;98745.00;5093002;28;20557;-46
2022/06/09 05:58:17;;;;;;;15.70;3.30;;;;;;;17.96;78.72;98748.88;5093062;28;20028;-45
2022/06/09 06:00:45;;;;;;;11.43;2.95;;;;;;;18.10;78.57;98754.63;5092961;28;20051;-46
2022/06/09 06:03:13;;;;;;;14.35;2.90;;;;;;;18.26;78.40;98752.16;5092864;28;20027;-47
2022/06/09 06:08:23;;;;;;;16.35;3.63;;;;;;;18.76;77.85;98754.53;5093131;28;20028;-46
2022/06/09 06:10:49;;;;;;;12.30;3.10;;;;;;;19.01;77.45;98750.50;5092727;28;20032;-46
2022/06/09 06:13:15;;;;;;;12.32;2.58;;;;;;;19.25;76.75;98750.97;5091441;28;20078;-46
2022/06/09 06:15:41;;;;;;;19.38;2.53;;;;;;;19.45;75.62;98757.50;5092703;28;20036;-46
2022/06/09 06:18:06;;;;;;;17.88;2.50;;;;;;;19.66;75.08;98759.22;5092622;28;20023;-47
2022/06/09 06:20:34;;;;;;;20.02;2.60;;;;;;;19.89;74.22;98755.34;5091286;28;20098;-48
2022/06/09 06:23:00;;;;;;;16.73;2.60;;;;;;;20.17;73.50;98752.56;5091211;28;20027;-46
2022/06/09 06:25:26;;;;;;;12.48;2.72;;;;;;;20.34;72.61;98766.44;5092275;28;20078;-47
2022/06/09 06:27:52;;;;;;;21.98;2.80;;;;;;;20.46;71.85;98756.34;5092467;28;20020;-45
2022/06/09 06:30:18;;;;;;;19.67;3.67;;;;;;;20.55;70.99;98762.78;5092462;28;20028;-45
2022/06/09 06:32:45;;;;;;;17.92;3.15;;;;;;;20.50;70.73;98772.63;5092663;28;20397;-49
2022/06/09 06:35:12;;;;;;;16.48;2.00;;;;;;;20.48;70.34;98764.91;5092245;28;20036;-48
2022/06/09 06:37:38;;;;;;;13.82;2.28;;;;;;;20.40;69.76;98772.59;5092126;28;20048;-45
2022/06/09 06:40:04;;;;;;;9.90;1.98;;;;;;;20.28;69.91;98771.00;5092345;28;20043;-46
2022/06/09 06:42:30;;;;;;;12.00;2.35;;;;;;;20.31;69.68;98774.97;5092204;28;20039;-46
2022/06/09 06:44:57;;;;;;;10.95;1.92;;;;;;;20.38;68.26;98785.38;5092108;28;20035;-47
2022/06/09 06:47:23;;;;;;;13.30;2.70;;;;;;;20.33;69.80;98778.19;5092198;28;20081;-47
2022/06/09 06:49:48;;;;;;;13.70;2.53;;;;;;;20.12;70.55;98793.28;5092066;28;20023;-48
2022/06/09 06:52:14;;;;;;;10.85;2.50;;;;;;;19.93;71.52;98795.59;5092103;28;20438;-47
2022/06/09 06:54:40;;;;;;;12.05;2.40;;;;;;;19.74;71.32;98801.38;5090769;28;20104;-49
2022/06/09 06:57:08;;;;;;;16.38;2.58;;;;;;;19.62;70.90;98797.25;5090741;28;20024;-48
2022/06/09 06:59:33;;;;;;;17.42;3.50;;;;;;;19.64;70.20;98798.63;5091995;28;20024;-47
2022/06/09 07:02:00;;;;;;;18.98;3.40;;;;;;;19.64;70.27;98803.94;5092000;28;20032;-47
2022/06/09 07:04:26;;;;;;;14.73;3.22;;;;;;;19.73;69.89;98798.97;5091849;28;20044;-47
2022/06/09 07:06:51;;;;;;;15.85;3.13;;;;;;;19.79;69.42;98805.13;5091861;28;20032;-49
2022/06/09 07:09:17;;;;;;;9.32;1.90;;;;;;;19.87;69.41;98810.75;5091972;28;20020;-48
2022/06/09 07:11:45;;;;;;;16.45;3.55;;;;;;;20.01;69.16;98812.97;5091875;28;20028;-49
2022/06/09 07:14:12;;;;;;;16.48;3.03;;;;;;;20.16;69.17;98810.34;5091886;28;20030;-47
2022/06/09 07:16:40;;;;;;;14.45;2.45;;;;;;;20.39;68.54;98813.66;5091852;28;20024;-47
2022/06/09 07:19:06;;;;;;;10.70;2.22;;;;;;;20.66;68.01;98813.50;5091859;28;20020;-47
2022/06/09 07:21:32;;;;;;;9.60;2.83;;;;;;;20.83;67.53;98818.63;5092078;28;20028;-47
2022/06/09 07:23:59;;;;;;;18.17;2.95;;;;;;;21.09;66.66;98814.13;5091900;28;20063;-47
2022/06/09 07:26:25;;;;;;;8.40;2.28;;;;;;;21.54;65.54;98812.50;5091740;28;20117;-47
2022/06/09 07:28:51;;;;;;;10.95;2.60;;;;;;;21.92;64.02;98816.44;5091768;28;20501;-47
2022/06/09 07:31:19;;;;;;;13.20;2.90;;;;;;;22.91;61.71;98818.41;5091956;28;20035;-47
2022/06/09 07:33:48;;;;;;;13.45;2.40;;;;;;;24.13;59.35;98807.72;5091713;28;20024;-49
2022/06/09 07:36:19;;;;;;;7.78;1.83;;;;;;;25.17;56.01;98807.88;5090352;28;20059;-48
2022/06/09 07:38:44;;;;;;;11.88;2.45;;;;;;;25.64;54.26;98814.13;5095570;28;20059;-48
2022/06/09 07:41:10;;;;;;;10.02;2.33;;;;;;;25.33;54.38;98818.41;5095673;28;20016;-47
2022/06/09 07:43:39;;;;;;;8.25;2.05;;;;;;;24.77;54.84;98810.13;5095664;28;20032;-47
2022/06/09 07:46:04;;;;;;;13.23;2.03;;;;;;;24.06;55.77;98806.44;5095471;28;20482;-47
2022/06/09 07:48:30;;;;;;;18.75;4.05;;;;;;;23.35;56.96;98806.06;5095546;28;20028;-47
2022/06/09 07:50:56;;;;;;;11.50;2.60;;;;;;;22.88;57.36;98808.28;5094157;28;20016;-49
2022/06/09 07:53:25;;;;;;;12.07;2.10;;;;;;;22.57;58.04;98807.66;5095455;28;20075;-49
2022/06/09 07:55:50;;;;;;;5.97;1.70;;;;;;;22.09;57.93;98809.97;5094058;28;20375;-47
2022/06/09 07:58:18;;;;;;;10.00;2.10;;;;;;;21.79;59.58;98814.34;5095286;28;20111;-49
2022/06/09 08:00:45;;;;;;;6.63;2.05;;;;;;;21.72;59.59;98811.16;5093935;28;20024;-48
2022/06/09 08:03:19;;;;;;;6.97;1.30;;;;;;;21.73;59.10;98810.88;5095322;28;20059;-49
2022/06/09 08:05:45;;;;;;;8.45;1.65;;;;;;;21.55;59.13;98819.47;5095396;28;20023;-49
2022/06/09 08:08:10;;;;;;;12.35;1.83;;;;;;;21.21;59.73;98821.84;5095159;28;20110;-46
2022/06/09 08:10:36;;;;;;;6.53;1.55;;;;;;;21.07;60.29;98818.91;5095093;28;20103;-49
2022/06/09 08:13:03;;;;;;;9.85;2.45;;;;;;;20.95;60.80;98821.84;5095021;28;20498;-50
2022/06/09 08:15:31;;;;;;;8.52;1.58;;;;;;;20.82;60.21;98835.66;5094978;28;20389;-50
2022/06/09 08:17:58;;;;;;;6.32;1.38;;;;;;;20.55;61.21;98829.44;5094974;28;20077;-47
2022/06/09 08:20:27;;;;;;;13.68;2.42;;;;;;;20.45;61.79;98834.75;5094930;28;20099;-49
2022/06/09 08:22:59;;;;;;;14.60;2.30;;;;;;;20.25;63.03;98838.13;5093541;28;20070;-49
2022/06/09 08:25:24;;;;;;;21.65;2.28;;;;;;;19.88;63.40;98832.84;5094799;28;20047;-49
2022/06/09 08:27:50;;;;;;;13.63;1.98;;;;;;;19.63;63.70;98852.91;5094775;28;20505;-49
2022/06/09 08:30:17;;;;;;;12.65;1.83;;;;;;;19.77;63.59;98844.53;5094869;28;20028;-48
2022/06/09 08:32:43;;;;;;;9.77;1.75;;;;;;;20.18;62.43;98844.75;5093414;28;20105;-47
2022/06/09 08:35:15;;;;;;;11.38;1.98;;;;;;;20.65;60.03;98851.91;5094557;28;20035;-46
2022/06/09 08:37:43;;;;;;;17.05;2.28;;;;;;;21.29;59.34;98856.81;5094337;28;20157;-49
2022/06/09 08:40:17;;;;;;;20.67;2.70;;;;;;;22.26;57.29;98853.25;5094489;28;20046;-48
2022/06/09 08:43:06;;;;;;;19.85;2.38;;;;;;;22.90;56.88;98853.50;5093209;28;20442;-49
2022/06/09 08:45:36;;;;;;;26.08;3.40;;;;;;;23.08;54.65;98860.91;5094313;28;20127;-49
2022/06/09 08:48:05;;;;;;;6.63;1.60;;;;;;;23.20;53.43;98865.91;5093320;28;20110;-49
2022/06/09 08:50:38;;;;;;;8.57;1.30;;;;;;;23.05;52.96;98861.44;5094056;28;20066;-48
2022/06/09 08:53:21;;;;;;;12.77;1.83;;;;;;;22.57;54.31;98865.72;5094371;28;20082;-49
2022/06/09 08:56:15;;;;;;;8.02;1.65;;;;;;;22.33;54.93;98879.69;5094310;28;20024;-49
2022/06/09 08:59:00;;;;;;;12.38;1.77;;;;;;;22.23;54.56;98885.06;5093767;28;20417;-49
2022/06/09 09:01:56;;;;;;;8.68;1.85;;;;;;;22.46;55.42;98883.69;5094261;28;20173;-49
2022/06/09 09:04:47;;;;;;;12.70;2.10;;;;;;;23.68;54.23;98874.09;5094050;28;20108;-49
2022/06/09 09:07:25;;;;;;;7.97;1.60;;;;;;;26.15;49.14;98870.75;5093651;28;20059;-48
2022/06/09 09:10:01;;;;;;;9.27;1.55;;;;;;;28.04;45.68;98861.06;5094062;28;20027;-49
2022/06/09 09:12:42;;;;;;;8.63;1.50;;;;;;;28.85;42.72;98865.22;5094043;28;20037;-48
2022/06/09 09:15:15;;;;;;;6.43;1.50;;;;;;;27.86;42.20;98859.38;5093927;28;20059;-49
2022/06/09 09:18:00;;;;;;;10.98;1.75;;;;;;;26.58;42.73;98865.06;5093850;28;20024;-48
2022/06/09 09:20:38;;;;;;;6.75;1.58;;;;;;;26.37;43.61;98868.16;5093900;28;20035;-49
2022/06/09 09:23:19;;;;;;;9.80;1.88;;;;;;;28.19;40.64;98861.75;5093834;28;20028;-47
2022/06/09 09:26:04;;;;;;;12.75;1.65;;;;;;;29.94;38.08;98865.28;5092329;28;20031;-48
2022/06/09 09:28:32;;;;;;;9.38;1.30;;;;;;;31.10;34.33;98863.16;5075566;28;20024;-48
2022/06/09 09:31:16;;;;;;;11.38;2.30;;;;;;;30.21;35.45;98869.47;5093615;28;20024;-47
2022/06/09 09:33:42;;;;;;;6.75;1.80;;;;;;;28.42;37.02;98855.13;5092309;28;20573;-48
2022/06/09 09:36:23;;;;;;;8.40;1.55;;;;;;;26.85;39.88;98881.19;5092101;28;20118;-48
2022/06/09 09:39:11;;;;;;;8.93;2.13;;;;;;;26.15;41.72;98895.75;5091908;28;20040;-48
2022/06/09 09:41:39;;;;;;;10.85;2.13;;;;;;;26.22;41.22;98893.47;5093385;28;20032;-48
2022/06/09 09:44:21;;;;;;;6.35;1.25;;;;;;;26.45;38.84;98886.28;5091935;28;20031;-48
2022/06/09 09:46:57;;;;;;;13.02;1.75;;;;;;;26.61;38.27;98888.72;5093304;28;20031;-48
2022/06/09 09:49:49;;;;;;;8.45;1.50;;;;;;;26.07;39.39;98901.84;5093242;28;20024;-48
2022/06/09 09:52:34;;;;;;;20.55;3.30;;;;;;;25.64;41.52;98920.84;5093272;28;20027;-48
2022/06/09 09:55:03;;;;;;;6.32;1.35;;;;;;;25.96;41.50;98920.06;5093164;28;20020;-48
2022/06/09 09:57:29;;;;;;;11.98;1.92;;;;;;;27.16;39.09;98910.09;5093059;28;20034;-47
2022/06/09 10:00:00;;;;;;;8.00;1.40;;;;;;;28.80;37.63;98908.63;5092620;28;20032;-48
2022/06/09 10:08:38;;;;;;;8.00;1.65;;;;;;;30.12;32.87;98925.53;5092891;28;20042;-48
2022/06/09 10:14:07;;;;;;;5.40;1.42;;;;;;;28.11;36.17;98921.88;5092840;28;20077;-48
2022/06/09 10:16:34;;;;;;;6.13;1.27;;;;;;;29.18;34.13;98926.19;5091469;28;20040;-48
2022/06/09 10:19:05;;;;;;;6.18;1.23;;;;;;;28.76;34.16;98923.88;5092760;28;20020;-49
2022/06/09 10:22:32;;;;;;;5.40;0.85;;;;;;;27.86;35.68;98932.19;5092666;28;20508;-48
2022/06/09 10:25:26;;;;;;;8.45;2.10;;;;;;;27.29;34.65;98938.16;5028986;28;20042;-48
2022/06/09 10:28:00;;;;;;;4.88;1.42;;;;;;;27.25;33.94;98942.56;5026078;28;20071;-48
2022/06/09 10:30:39;;;;;;;10.15;1.60;;;;;;;27.41;33.41;98933.03;5013678;28;20029;-48
2022/06/09 10:33:18;;;;;;;11.52;1.88;;;;;;;27.38;33.28;98935.53;5013599;28;20038;-48
2022/06/09 10:35:49;;;;;;;5.72;1.23;;;;;;;26.45;34.34;98942.81;5030053;28;20044;-48
2022/06/09 10:38:37;;;;;;;15.20;2.20;;;;;;;25.74;36.17;98947.56;5029712;28;20049;-48
2022/06/09 10:41:09;;;;;;;7.10;1.35;;;;;;;25.63;36.44;98940.72;5030043;28;20029;-48
2022/06/09 10:43:40;;;;;;;5.65;1.63;;;;;;;25.51;36.57;98939.31;5013413;28;20033;-48
2022/06/09 10:46:38;;;;;;;9.85;1.48;;;;;;;25.31;36.85;98924.31;5029766;28;20041;-49
2022/06/09 10:55:28;;;;;;;8.40;1.60;;;;;;;27.66;34.56;98931.59;5029821;28;20166;-47
2022/06/09 10:58:04;;;;;;;7.22;1.63;;;;;;;28.39;32.63;98917.06;5045110;28;20421;-48
2022/06/09 11:00:34;;;;;;;9.07;1.42;;;;;;;28.85;31.88;98921.16;5090743;28;20035;-49
2022/06/09 11:03:10;;;;;;;7.75;2.03;;;;;;;28.93;31.66;98927.72;5092041;28;20034;-49
2022/06/09 11:06:00;;;;;;;13.05;1.50;;;;;;;29.18;30.10;98926.97;5091920;28;20028;-47
2022/06/09 11:08:31;;;;;;;5.15;1.13;;;;;;;29.07;29.92;98920.25;5091988;28;20031;-46
2022/06/09 11:11:12;;;;;;;6.43;1.30;;;;;;;28.45;29.87;98932.81;5091466;28;20028;-49
2022/06/09 11:14:15;;;;;;;10.80;2.08;;;;;;;28.04;31.71;98933.13;5091852;28;20439;-48
2022/06/09 11:17:00;;;;;;;6.47;1.60;;;;;;;28.37;31.17;98930.06;5081874;28;20040;-48
2022/06/09 11:19:44;;;;;;;8.65;1.58;;;;;;;28.67;29.79;98929.25;5091930;28;20077;-49
2022/06/09 11:22:24;;;;;;;10.40;1.30;;;;;;;28.61;29.57;98927.00;5091814;28;20071;-48
2022/06/09 11:25:16;;;;;;;8.43;1.73;;;;;;;27.84;30.96;98934.41;5090406;28;20031;-46
2022/06/09 11:28:02;;;;;;;10.40;1.70;;;;;;;26.65;33.09;98943.53;5059496;28;20132;-48
2022/06/09 11:30:55;;;;;;;9.10;1.80;;;;;;;25.62;35.59;98939.16;5091765;28;20020;-48
2022/06/09 11:33:38;;;;;;;7.82;1.50;;;;;;;25.33;36.79;98953.53;5092027;28;20093;-49
2022/06/09 11:36:37;;;;;;;8.70;1.33;;;;;;;25.40;35.79;98953.19;5091752;28;20444;-49
2022/06/09 11:39:25;;;;;;;9.43;1.80;;;;;;;25.57;36.07;98945.38;5091493;28;20052;-48
2022/06/09 11:42:23;;;;;;;10.60;2.03;;;;;;;26.26;33.77;98942.13;5091697;28;20031;-48
2022/06/09 11:44:53;;;;;;;10.73;1.60;;;;;;;26.61;32.39;98946.03;5067562;28;20072;-49
2022/06/09 11:47:24;;;;;;;16.15;1.70;;;;;;;26.87;31.62;98927.44;5091660;28;20579;-49
2022/06/09 11:50:09;;;;;;;5.88;1.23;;;;;;;27.62;31.27;98927.13;5091623;28;20116;-47
2022/06/09 11:52:46;;;;;;;10.45;1.33;;;;;;;28.82;30.17;98909.09;5090298;28;20032;-49
2022/06/09 11:58:35;;;;;;;12.38;2.05;;;;;;;28.41;28.60;98904.88;5091527;28;20107;-49
2022/06/09 12:01:18;;;;;;;13.13;1.27;;;;;;;27.50;29.62;98919.59;5091417;28;20028;-48
2022/06/09 12:04:26;;;;;;;8.70;1.48;;;;;;;27.04;30.68;98912.53;5090122;28;20389;-49
2022/06/09 12:07:10;;;;;;;8.40;1.67;;;;;;;27.31;30.75;98922.47;5091430;28;20031;-49
2022/06/09 12:10:12;;;;;;;9.02;1.67;;;;;;;28.20;30.21;98912.72;5091441;28;20024;-48
2022/06/09 12:12:42;;;;;;;5.47;1.23;;;;;;;28.92;28.62;98904.50;5090025;28;20115;-48
2022/06/09 12:15:32;;;;;;;11.20;1.48;;;;;;;30.01;28.19;98914.28;5091281;28;20505;-49
2022/06/09 12:18:23;;;;;;;9.27;1.73;;;;;;;30.28;26.41;98902.22;5091357;28;20028;-47
2022/06/09 12:20:49;;;;;;;7.93;1.35;;;;;;;30.00;26.37;98910.78;5091116;28;20031;-48